createdAt,value
2017-08-07T00:00:06.448Z,28.1
2017-08-07T00:01:08.253Z,28.1
2017-08-07T00:02:10.376Z,28.2
2017-08-07T00:03:11.838Z,28.2
2017-08-07T00:04:13.629Z,28.2
2017-08-07T00:05:15.433Z,28.1
2017-08-07T00:06:17.562Z,28.3
2017-08-07T00:07:19.696Z,28.2
2017-08-07T00:08:21.826Z,28.1
2017-08-07T00:09:23.605Z,28.2
2017-08-07T00:10:25.738Z,28.2
2017-08-07T00:11:27.535Z,28.2
2017-08-07T00:12:29.312Z,28.2
2017-08-07T00:13:31.111Z,28.2
2017-08-07T00:14:32.909Z,28.2
2017-08-07T00:15:34.713Z,28.2
2017-08-07T00:16:36.845Z,28.1
2017-08-07T00:17:38.978Z,28.1
2017-08-07T00:18:40.756Z,28.2
2017-08-07T00:19:42.535Z,28.2
2017-08-07T00:20:44.333Z,28.2
2017-08-07T00:21:46.469Z,28.1
2017-08-07T00:22:48.599Z,28.1
2017-08-07T00:23:50.730Z,28.1
2017-08-07T00:24:52.192Z,28.1
2017-08-07T00:25:54.328Z,28.1
2017-08-07T00:26:56.103Z,28.2
2017-08-07T00:27:58.238Z,28.1
2017-08-07T00:29:00.035Z,28.1
2017-08-07T00:30:01.501Z,28.1
2017-08-07T00:31:02.941Z,28.1
2017-08-07T00:32:05.069Z,28.1
2017-08-07T00:33:06.532Z,28.1
2017-08-07T00:34:08.662Z,28.1
2017-08-07T00:35:10.792Z,28.1
2017-08-07T00:36:12.922Z,28.1
2017-08-07T00:37:14.719Z,28.1
2017-08-07T00:38:16.520Z,28.1
2017-08-07T00:39:18.315Z,28.2
2017-08-07T00:40:20.449Z,28.1
2017-08-07T00:41:21.922Z,28.1
2017-08-07T00:42:23.721Z,28.1
2017-08-07T00:43:25.497Z,28.1
2017-08-07T00:44:27.296Z,28.1
2017-08-07T00:45:28.404Z,28.1
2017-08-07T00:46:30.534Z,28.1
2017-08-07T00:47:32.334Z,28.1
2017-08-07T00:48:34.136Z,28.1
2017-08-07T00:49:36.266Z,28.1
2017-08-07T00:50:38.067Z,28.1
2017-08-07T00:51:40.197Z,28.1
2017-08-07T00:52:41.998Z,28.1
2017-08-07T00:53:43.439Z,28.1
2017-08-07T00:54:45.576Z,28.1
2017-08-07T00:55:47.706Z,28.1
2017-08-07T00:56:49.839Z,28.1
2017-08-07T00:57:52.021Z,28.1
2017-08-07T00:58:54.153Z,28.1
2017-08-07T00:59:56.282Z,28.1
2017-08-07T01:00:58.082Z,28.1
2017-08-07T01:01:59.524Z,28.1
2017-08-07T01:03:01.320Z,28
2017-08-07T01:04:03.447Z,28
2017-08-07T01:05:05.575Z,28
2017-08-07T01:06:07.706Z,28.1
2017-08-07T01:07:09.176Z,28.1
2017-08-07T01:08:11.305Z,27.9
2017-08-07T01:09:13.105Z,28.1
2017-08-07T01:10:14.214Z,28
2017-08-07T01:11:15.328Z,28
2017-08-07T01:12:16.794Z,28
2017-08-07T01:13:18.592Z,27.9
2017-08-07T01:14:20.721Z,28
2017-08-07T01:15:22.497Z,27.9
2017-08-07T01:16:23.963Z,28
2017-08-07T01:17:25.762Z,28.1
2017-08-07T01:18:27.558Z,28
2017-08-07T01:19:29.701Z,28
2017-08-07T01:20:31.509Z,28
2017-08-07T01:21:33.309Z,27.9
2017-08-07T01:22:34.752Z,27.9
2017-08-07T01:23:36.200Z,27.9
2017-08-07T01:24:38.331Z,28
2017-08-07T01:25:40.133Z,27.9
2017-08-07T01:26:41.908Z,28
2017-08-07T01:27:44.044Z,28
2017-08-07T01:28:46.174Z,28
2017-08-07T01:29:47.286Z,28.1
2017-08-07T01:30:49.084Z,28
2017-08-07T01:31:51.217Z,28
2017-08-07T01:32:53.343Z,28
2017-08-07T01:33:55.146Z,28
2017-08-07T01:34:57.273Z,28
2017-08-07T01:35:59.407Z,28
2017-08-07T01:37:01.536Z,27.9
2017-08-07T01:38:03.667Z,27.9
2017-08-07T01:39:05.465Z,28
2017-08-07T01:40:06.911Z,27.9
2017-08-07T01:41:09.039Z,28
2017-08-07T01:42:10.173Z,28
2017-08-07T01:43:11.947Z,27.9
2017-08-07T01:44:13.748Z,28
2017-08-07T01:45:15.545Z,28
2017-08-07T01:46:17.677Z,28
2017-08-07T01:47:19.472Z,27.9
2017-08-07T01:48:21.271Z,27.9
2017-08-07T01:49:23.400Z,27.9
2017-08-07T01:50:25.529Z,28
2017-08-07T01:51:27.325Z,27.9
2017-08-07T01:52:28.792Z,27.9
2017-08-07T01:53:30.923Z,28
2017-08-07T01:54:32.725Z,27.9
2017-08-07T01:55:34.497Z,28
2017-08-07T01:56:36.626Z,27.9
2017-08-07T01:57:38.402Z,27.9
2017-08-07T01:58:40.532Z,27.9
2017-08-07T01:59:42.327Z,27.9
2017-08-07T02:00:44.458Z,27.9
2017-08-07T02:01:46.602Z,27.9
2017-08-07T02:02:48.401Z,28
2017-08-07T02:03:50.530Z,27.9
2017-08-07T02:04:52.340Z,27.9
2017-08-07T02:05:54.133Z,27.9
2017-08-07T02:06:56.265Z,27.9
2017-08-07T02:07:58.074Z,27.9
2017-08-07T02:09:00.206Z,27.9
2017-08-07T02:10:02.336Z,27.9
2017-08-07T02:11:04.468Z,27.9
2017-08-07T02:12:06.258Z,27.9
2017-08-07T02:13:08.390Z,27.9
2017-08-07T02:14:10.187Z,27.9
2017-08-07T02:15:11.983Z,27.9
2017-08-07T02:16:13.781Z,27.9
2017-08-07T02:17:15.557Z,27.9
2017-08-07T02:18:17.355Z,27.8
2017-08-07T02:19:18.806Z,27.9
2017-08-07T02:20:20.933Z,27.8
2017-08-07T02:21:22.730Z,27.9
2017-08-07T02:22:24.859Z,27.8
2017-08-07T02:23:26.671Z,27.9
2017-08-07T02:24:28.127Z,27.9
2017-08-07T02:25:29.954Z,27.9
2017-08-07T02:26:32.085Z,27.9
2017-08-07T02:27:33.862Z,27.9
2017-08-07T02:28:35.659Z,27.9
2017-08-07T02:29:36.795Z,27.9
2017-08-07T02:30:38.569Z,27.8
2017-08-07T02:31:40.701Z,27.8
2017-08-07T02:32:42.516Z,27.8
2017-08-07T02:33:43.965Z,27.9
2017-08-07T02:34:45.412Z,27.9
2017-08-07T02:35:47.260Z,27.9
2017-08-07T02:36:49.033Z,27.8
2017-08-07T02:37:50.810Z,27.8
2017-08-07T02:38:52.589Z,27.8
2017-08-07T02:39:54.712Z,27.8
2017-08-07T02:40:56.509Z,27.8
2017-08-07T02:41:58.635Z,27.9
2017-08-07T02:43:00.763Z,27.9
2017-08-07T02:44:02.565Z,27.8
2017-08-07T02:45:04.361Z,27.8
2017-08-07T02:46:06.160Z,27.8
2017-08-07T02:47:07.957Z,27.8
2017-08-07T02:48:09.774Z,27.9
2017-08-07T02:49:11.561Z,27.8
2017-08-07T02:50:13.354Z,27.8
2017-08-07T02:51:15.486Z,27.9
2017-08-07T02:52:17.282Z,27.8
2017-08-07T02:53:19.414Z,27.8
2017-08-07T02:54:20.860Z,27.8
2017-08-07T02:55:22.701Z,27.8
2017-08-07T02:56:24.835Z,27.8
2017-08-07T02:57:26.281Z,27.8
2017-08-07T02:58:28.144Z,27.9
2017-08-07T02:59:29.947Z,27.8
2017-08-07T03:00:31.388Z,27.8
2017-08-07T03:01:33.518Z,27.8
2017-08-07T03:02:35.648Z,27.8
2017-08-07T03:03:37.106Z,27.8
2017-08-07T03:04:39.232Z,27.8
2017-08-07T03:05:41.067Z,27.8
2017-08-07T03:06:43.196Z,27.8
2017-08-07T03:07:45.064Z,27.8
2017-08-07T03:08:47.194Z,27.8
2017-08-07T03:09:49.327Z,27.8
2017-08-07T03:10:51.127Z,27.8
2017-08-07T03:11:53.276Z,27.7
2017-08-07T03:12:55.407Z,27.7
2017-08-07T03:13:57.546Z,27.8
2017-08-07T03:14:59.342Z,27.7
2017-08-07T03:16:01.142Z,27.8
2017-08-07T03:17:02.917Z,27.8
2017-08-07T03:18:04.710Z,27.7
2017-08-07T03:19:06.843Z,27.7
2017-08-07T03:20:08.642Z,27.8
2017-08-07T03:21:10.130Z,27.8
2017-08-07T03:22:12.265Z,27.7
2017-08-07T03:23:13.704Z,27.7
2017-08-07T03:24:15.834Z,27.7
2017-08-07T03:25:17.964Z,27.7
2017-08-07T03:26:19.744Z,27.7
2017-08-07T03:27:21.203Z,27.7
2017-08-07T03:28:22.980Z,27.8
2017-08-07T03:29:25.108Z,27.7
2017-08-07T03:30:26.884Z,27.7
2017-08-07T03:31:28.352Z,27.7
2017-08-07T03:32:30.150Z,27.8
2017-08-07T03:33:32.280Z,27.7
2017-08-07T03:34:34.415Z,27.8
2017-08-07T03:35:36.185Z,27.7
2017-08-07T03:36:37.985Z,27.7
2017-08-07T03:37:39.429Z,27.8
2017-08-07T03:38:41.226Z,27.7
2017-08-07T03:39:43.027Z,27.7
2017-08-07T03:40:44.493Z,27.6
2017-08-07T03:41:46.623Z,27.7
2017-08-07T03:42:48.751Z,27.7
2017-08-07T03:43:50.196Z,27.7
2017-08-07T03:44:51.993Z,27.7
2017-08-07T03:45:54.126Z,27.7
2017-08-07T03:46:56.256Z,27.7
2017-08-07T03:47:58.055Z,27.7
2017-08-07T03:49:00.188Z,27.7
2017-08-07T03:50:01.991Z,27.7
2017-08-07T03:51:04.120Z,27.7
2017-08-07T03:52:05.564Z,27.6
2017-08-07T03:53:07.341Z,27.7
2017-08-07T03:54:08.816Z,27.7
2017-08-07T03:55:10.281Z,27.7
2017-08-07T03:56:12.051Z,27.7
2017-08-07T03:57:13.852Z,27.7
2017-08-07T03:58:15.626Z,27.7
2017-08-07T03:59:17.758Z,27.7
2017-08-07T04:00:19.561Z,27.7
2017-08-07T04:01:21.361Z,27.6
2017-08-07T04:02:23.489Z,27.7
2017-08-07T04:03:24.656Z,27.7
2017-08-07T04:04:26.784Z,27.7
2017-08-07T04:05:28.915Z,27.6
2017-08-07T04:06:30.693Z,27.7
2017-08-07T04:07:32.819Z,27.7
2017-08-07T04:08:34.948Z,27.7
2017-08-07T04:09:37.084Z,27.7
2017-08-07T04:10:39.221Z,27.8
2017-08-07T04:11:41.000Z,27.6
2017-08-07T04:12:42.800Z,27.7
2017-08-07T04:13:43.589Z,27.7
2017-08-07T04:14:45.721Z,27.7
2017-08-07T04:15:47.850Z,27.6
2017-08-07T04:16:49.652Z,27.7
2017-08-07T04:17:50.770Z,27.6
2017-08-07T04:18:52.899Z,27.7
2017-08-07T04:19:54.701Z,27.7
2017-08-07T04:20:56.473Z,27.7
2017-08-07T04:21:58.601Z,27.7
2017-08-07T04:23:00.735Z,27.7
2017-08-07T04:24:02.531Z,27.6
2017-08-07T04:25:04.328Z,27.7
2017-08-07T04:26:05.770Z,27.6
2017-08-07T04:27:07.902Z,27.7
2017-08-07T04:28:09.675Z,27.7
2017-08-07T04:29:11.474Z,27.7
2017-08-07T04:30:13.605Z,27.8
2017-08-07T04:31:15.738Z,27.7
2017-08-07T04:32:17.200Z,27.7
2017-08-07T04:33:18.666Z,27.6
2017-08-07T04:34:20.796Z,27.7
2017-08-07T04:35:22.598Z,27.7
2017-08-07T04:36:24.402Z,27.7
2017-08-07T04:37:26.170Z,27.7
2017-08-07T04:38:28.303Z,27.7
2017-08-07T04:39:30.100Z,27.7
2017-08-07T04:40:32.232Z,27.7
2017-08-07T04:41:33.699Z,27.7
2017-08-07T04:42:35.503Z,27.6
2017-08-07T04:43:36.966Z,27.6
2017-08-07T04:44:38.404Z,27.7
2017-08-07T04:45:40.534Z,27.8
2017-08-07T04:46:42.665Z,27.7
2017-08-07T04:47:44.108Z,27.7
2017-08-07T04:48:45.576Z,27.7
2017-08-07T04:49:46.359Z,27.7
2017-08-07T04:50:47.824Z,27.7
2017-08-07T04:51:49.623Z,27.8
2017-08-07T04:52:51.100Z,27.7
2017-08-07T04:53:52.546Z,27.7
2017-08-07T04:54:54.729Z,27.8
2017-08-07T04:55:56.862Z,27.8
2017-08-07T04:56:58.331Z,27.7
2017-08-07T04:57:59.464Z,27.7
2017-08-07T04:59:00.937Z,27.7
2017-08-07T05:00:02.734Z,27.8
2017-08-07T05:01:04.868Z,27.8
2017-08-07T05:02:06.667Z,27.8
2017-08-07T05:03:08.801Z,27.9
2017-08-07T05:04:10.934Z,28
2017-08-07T05:05:12.733Z,28.1
2017-08-07T05:06:14.180Z,28.1
2017-08-07T05:07:15.649Z,28.2
2017-08-07T05:08:17.109Z,28.2
2017-08-07T05:09:18.917Z,28.1
2017-08-07T05:10:20.695Z,28.3
2017-08-07T05:11:22.833Z,28.3
2017-08-07T05:12:24.636Z,28.3
2017-08-07T05:13:26.437Z,28.4
2017-08-07T05:14:27.906Z,28.4
2017-08-07T05:15:30.034Z,28.3
2017-08-07T05:16:32.164Z,28.3
2017-08-07T05:17:33.963Z,28.3
2017-08-07T05:18:35.762Z,28.4
2017-08-07T05:19:37.544Z,28.4
2017-08-07T05:20:39.774Z,28.4
2017-08-07T05:21:41.577Z,28.4
2017-08-07T05:22:43.374Z,28.4
2017-08-07T05:23:45.520Z,28.4
2017-08-07T05:24:46.968Z,28.5
2017-08-07T05:25:49.100Z,28.5
2017-08-07T05:26:51.234Z,28.6
2017-08-07T05:27:53.012Z,28.5
2017-08-07T05:28:54.812Z,28.5
2017-08-07T05:29:56.617Z,28.5
2017-08-07T05:30:58.398Z,28.5
2017-08-07T05:32:00.195Z,28.6
2017-08-07T05:33:01.997Z,28.7
2017-08-07T05:34:03.799Z,28.6
2017-08-07T05:35:05.929Z,28.6
2017-08-07T05:36:07.734Z,28.7
2017-08-07T05:37:09.530Z,28.6
2017-08-07T05:38:10.981Z,28.6
2017-08-07T05:39:12.761Z,28.6
2017-08-07T05:40:14.225Z,28.6
2017-08-07T05:41:16.075Z,28.5
2017-08-07T05:42:18.206Z,28.7
2017-08-07T05:43:20.009Z,28.6
2017-08-07T05:44:21.120Z,28.7
2017-08-07T05:45:22.919Z,28.7
2017-08-07T05:46:25.049Z,28.7
2017-08-07T05:47:26.182Z,28.7
2017-08-07T05:48:28.313Z,28.8
2017-08-07T05:49:30.086Z,28.8
2017-08-07T05:50:31.882Z,28.8
2017-08-07T05:51:33.685Z,28.8
2017-08-07T05:52:35.132Z,28.7
2017-08-07T05:53:36.934Z,28.8
2017-08-07T05:54:39.069Z,28.8
2017-08-07T05:55:40.849Z,28.8
2017-08-07T05:56:42.647Z,28.8
2017-08-07T05:57:44.778Z,28.8
2017-08-07T05:58:46.912Z,28.8
2017-08-07T05:59:49.047Z,28.8
2017-08-07T06:00:50.848Z,28.8
2017-08-07T06:01:52.313Z,28.8
2017-08-07T06:02:54.114Z,28.8
2017-08-07T06:03:56.245Z,28.8
2017-08-07T06:04:58.047Z,28.9
2017-08-07T06:05:59.845Z,28.9
2017-08-07T06:07:01.980Z,28.9
2017-08-07T06:08:03.778Z,28.9
2017-08-07T06:09:05.225Z,28.9
2017-08-07T06:10:07.024Z,28.9
2017-08-07T06:11:09.156Z,28.9
2017-08-07T06:12:10.625Z,28.9
2017-08-07T06:13:12.756Z,28.9
2017-08-07T06:14:14.558Z,28.9
2017-08-07T06:15:16.362Z,28.9
2017-08-07T06:16:18.505Z,28.9
2017-08-07T06:17:20.640Z,28.9
2017-08-07T06:18:22.774Z,28.8
2017-08-07T06:19:24.554Z,28.9
2017-08-07T06:20:26.002Z,28.9
2017-08-07T06:21:27.473Z,28.9
2017-08-07T06:22:29.275Z,28.8
2017-08-07T06:23:31.410Z,28.8
2017-08-07T06:24:33.203Z,29
2017-08-07T06:25:35.336Z,28.9
2017-08-07T06:26:37.468Z,28.9
2017-08-07T06:27:39.600Z,29
2017-08-07T06:28:41.735Z,28.9
2017-08-07T06:29:43.206Z,29
2017-08-07T06:30:45.338Z,28.9
2017-08-07T06:31:47.142Z,28.9
2017-08-07T06:32:49.273Z,29
2017-08-07T06:33:50.723Z,28.9
2017-08-07T06:34:52.193Z,28.9
2017-08-07T06:35:54.321Z,28.9
2017-08-07T06:36:56.122Z,28.9
2017-08-07T06:37:58.252Z,29
2017-08-07T06:39:00.381Z,28.9
2017-08-07T06:40:02.512Z,28.9
2017-08-07T06:41:04.310Z,29
2017-08-07T06:42:06.109Z,28.9
2017-08-07T06:43:08.009Z,29
2017-08-07T06:44:09.809Z,28.9
2017-08-07T06:45:11.276Z,28.9
2017-08-07T06:46:13.407Z,29
2017-08-07T06:47:15.540Z,28.9
2017-08-07T06:48:17.672Z,29
2017-08-07T06:49:19.806Z,29
2017-08-07T06:50:21.610Z,28.9
2017-08-07T06:51:23.407Z,29
2017-08-07T06:52:24.523Z,29
2017-08-07T06:53:26.326Z,29
2017-08-07T06:54:28.456Z,28.9
2017-08-07T06:55:29.908Z,28.9
2017-08-07T06:56:31.354Z,28.9
2017-08-07T06:57:33.151Z,29
2017-08-07T06:58:35.283Z,28.9
2017-08-07T06:59:36.750Z,29
2017-08-07T07:00:38.531Z,28.9
2017-08-07T07:01:40.659Z,28.9
2017-08-07T07:02:42.159Z,29
2017-08-07T07:03:44.293Z,28.9
2017-08-07T07:04:45.741Z,29
2017-08-07T07:05:47.877Z,29
2017-08-07T07:06:49.653Z,28.9
2017-08-07T07:07:51.435Z,29
2017-08-07T07:08:53.211Z,28.9
2017-08-07T07:09:55.016Z,29
2017-08-07T07:10:56.825Z,29
2017-08-07T07:11:58.955Z,29
2017-08-07T07:13:00.752Z,28.9
2017-08-07T07:14:02.542Z,29
2017-08-07T07:15:04.696Z,29
2017-08-07T07:16:06.818Z,28.9
2017-08-07T07:17:08.949Z,29
2017-08-07T07:18:10.750Z,28.9
2017-08-07T07:19:12.552Z,29
2017-08-07T07:20:14.687Z,28.9
2017-08-07T07:21:16.487Z,29
2017-08-07T07:22:18.286Z,28.9
2017-08-07T07:23:20.066Z,28.9
2017-08-07T07:24:21.517Z,28.9
2017-08-07T07:25:23.313Z,28.9
2017-08-07T07:26:25.445Z,28.9
2017-08-07T07:27:26.914Z,29
2017-08-07T07:28:29.051Z,28.9
2017-08-07T07:29:30.523Z,28.9
2017-08-07T07:30:32.656Z,28.9
2017-08-07T07:31:34.457Z,28.9
2017-08-07T07:32:35.910Z,28.9
2017-08-07T07:33:38.041Z,28.9
2017-08-07T07:34:40.179Z,28.9
2017-08-07T07:35:42.316Z,28.9
2017-08-07T07:36:44.119Z,28.9
2017-08-07T07:37:46.249Z,28.9
2017-08-07T07:38:48.385Z,28.9
2017-08-07T07:39:50.188Z,28.9
2017-08-07T07:40:51.986Z,28.9
2017-08-07T07:41:53.767Z,28.9
2017-08-07T07:42:55.901Z,28.9
2017-08-07T07:43:57.368Z,28.9
2017-08-07T07:44:59.501Z,28.8
2017-08-07T07:46:01.301Z,28.9
2017-08-07T07:47:02.754Z,28.8
2017-08-07T07:48:04.553Z,28.9
2017-08-07T07:49:06.401Z,28.9
2017-08-07T07:50:07.513Z,28.9
2017-08-07T07:51:09.292Z,28.9
2017-08-07T07:52:11.424Z,29
2017-08-07T07:53:13.562Z,28.9
2017-08-07T07:54:15.368Z,28.9
2017-08-07T07:55:16.839Z,28.9
2017-08-07T07:56:18.616Z,28.9
2017-08-07T07:57:20.089Z,28.8
2017-08-07T07:58:21.866Z,28.9
2017-08-07T07:59:24.004Z,28.9
2017-08-07T08:00:25.800Z,28.8
2017-08-07T08:01:26.921Z,28.8
2017-08-07T08:02:28.720Z,28.9
2017-08-07T08:03:30.524Z,28.8
2017-08-07T08:04:32.324Z,28.8
2017-08-07T08:05:34.456Z,28.9
2017-08-07T08:06:35.900Z,28.9
2017-08-07T08:07:38.033Z,28.8
2017-08-07T08:08:39.842Z,28.9
2017-08-07T08:09:40.955Z,28.9
2017-08-07T08:10:42.755Z,28.9
2017-08-07T08:11:44.226Z,28.9
2017-08-07T08:12:46.025Z,28.9
2017-08-07T08:13:47.830Z,28.8
2017-08-07T08:14:49.326Z,28.8
2017-08-07T08:15:51.129Z,28.9
2017-08-07T08:16:52.575Z,28.9
2017-08-07T08:17:54.053Z,28.9
2017-08-07T08:18:55.851Z,28.9
2017-08-07T08:19:56.969Z,28.9
2017-08-07T08:20:58.767Z,28.9
2017-08-07T08:22:00.579Z,28.8
2017-08-07T08:23:01.721Z,28.9
2017-08-07T08:24:03.508Z,28.9
2017-08-07T08:25:05.639Z,28.9
2017-08-07T08:26:07.775Z,28.9
2017-08-07T08:27:09.912Z,28.9
2017-08-07T08:28:11.383Z,28.8
2017-08-07T08:29:12.849Z,28.8
2017-08-07T08:30:14.628Z,28.9
2017-08-07T08:31:16.405Z,28.8
2017-08-07T08:32:18.210Z,28.8
2017-08-07T08:33:19.987Z,28.9
2017-08-07T08:34:21.765Z,28.9
2017-08-07T08:35:23.208Z,28.9
2017-08-07T08:36:25.344Z,28.8
2017-08-07T08:37:27.143Z,28.9
2017-08-07T08:38:28.588Z,28.9
2017-08-07T08:39:30.722Z,28.9
2017-08-07T08:40:32.198Z,28.9
2017-08-07T08:41:34.339Z,28.8
2017-08-07T08:42:36.468Z,28.9
2017-08-07T08:43:38.602Z,28.9
2017-08-07T08:44:40.731Z,28.8
2017-08-07T08:45:42.532Z,28.9
2017-08-07T08:46:44.722Z,28.9
2017-08-07T08:47:46.855Z,28.9
2017-08-07T08:48:48.657Z,28.8
2017-08-07T08:49:50.438Z,28.8
2017-08-07T08:50:52.567Z,28.8
2017-08-07T08:51:54.011Z,28.8
2017-08-07T08:52:56.150Z,28.9
2017-08-07T08:53:58.283Z,28.9
2017-08-07T08:54:59.756Z,28.9
2017-08-07T08:56:01.887Z,28.8
2017-08-07T08:57:03.689Z,28.9
2017-08-07T08:58:05.131Z,28.9
2017-08-07T08:59:07.267Z,28.8
2017-08-07T09:00:09.067Z,28.9
2017-08-07T09:01:11.302Z,28.8
2017-08-07T09:02:13.078Z,28.8
2017-08-07T09:03:14.547Z,28.9
2017-08-07T09:04:16.350Z,28.8
2017-08-07T09:05:18.481Z,28.9
2017-08-07T09:06:20.280Z,28.9
2017-08-07T09:07:22.082Z,28.8
2017-08-07T09:08:24.214Z,28.8
2017-08-07T09:09:26.010Z,28.9
2017-08-07T09:10:28.153Z,28.9
2017-08-07T09:11:30.287Z,28.8
2017-08-07T09:12:32.072Z,28.9
2017-08-07T09:13:33.852Z,28.9
2017-08-07T09:14:35.319Z,28.9
2017-08-07T09:15:37.452Z,28.9
2017-08-07T09:16:39.249Z,28.9
2017-08-07T09:17:41.384Z,28.9
2017-08-07T09:18:42.496Z,28.9
2017-08-07T09:19:44.306Z,28.9
2017-08-07T09:20:46.105Z,28.8
2017-08-07T09:21:47.885Z,28.9
2017-08-07T09:22:49.684Z,28.9
2017-08-07T09:23:51.485Z,28.9
2017-08-07T09:24:52.952Z,28.9
2017-08-07T09:25:54.730Z,28.9
2017-08-07T09:26:56.861Z,28.9
2017-08-07T09:27:58.309Z,28.9
2017-08-07T09:28:59.756Z,28.9
2017-08-07T09:30:01.579Z,28.9
2017-08-07T09:31:03.045Z,28.9
2017-08-07T09:32:04.824Z,28.9
2017-08-07T09:33:06.955Z,28.9
2017-08-07T09:34:08.754Z,28.9
2017-08-07T09:35:10.910Z,28.9
2017-08-07T09:36:13.046Z,28.9
2017-08-07T09:37:14.516Z,28.9
2017-08-07T09:38:15.638Z,28.9
2017-08-07T09:39:17.502Z,29
2017-08-07T09:40:19.318Z,28.8
2017-08-07T09:41:20.767Z,29
2017-08-07T09:42:22.549Z,29
2017-08-07T09:43:24.019Z,29
2017-08-07T09:44:26.156Z,28.9
2017-08-07T09:45:27.597Z,28.9
2017-08-07T09:46:29.398Z,29
2017-08-07T09:47:31.197Z,29
2017-08-07T09:48:32.997Z,28.9
2017-08-07T09:49:34.794Z,29
2017-08-07T09:50:36.599Z,29
2017-08-07T09:51:38.731Z,28.9
2017-08-07T09:52:40.864Z,28.9
2017-08-07T09:53:42.998Z,28.9
2017-08-07T09:54:44.449Z,28.9
2017-08-07T09:55:46.231Z,29
2017-08-07T09:56:48.019Z,29
2017-08-07T09:57:50.151Z,28.9
2017-08-07T09:58:51.931Z,28.9
2017-08-07T09:59:53.728Z,28.9
2017-08-07T10:00:55.513Z,29
2017-08-07T10:01:57.312Z,29
2017-08-07T10:02:59.442Z,29
2017-08-07T10:04:01.257Z,28.9
2017-08-07T10:05:02.728Z,29
2017-08-07T10:06:04.858Z,29
2017-08-07T10:07:06.306Z,29
2017-08-07T10:08:08.112Z,28.9
2017-08-07T10:09:09.560Z,29
2017-08-07T10:10:11.349Z,29
2017-08-07T10:11:12.817Z,28.9
2017-08-07T10:12:14.953Z,29
2017-08-07T10:13:16.067Z,29
2017-08-07T10:14:18.197Z,29
2017-08-07T10:15:20.332Z,29
2017-08-07T10:16:21.801Z,29
2017-08-07T10:17:23.606Z,29
2017-08-07T10:18:25.402Z,29
2017-08-07T10:19:27.536Z,29
2017-08-07T10:20:29.667Z,29
2017-08-07T10:21:31.448Z,29
2017-08-07T10:22:33.245Z,29
2017-08-07T10:23:35.378Z,29
2017-08-07T10:24:37.180Z,29
2017-08-07T10:25:38.957Z,29
2017-08-07T10:26:41.088Z,29
2017-08-07T10:27:42.896Z,29
2017-08-07T10:28:44.694Z,29.1
2017-08-07T10:29:46.165Z,29.1
2017-08-07T10:30:48.296Z,29
2017-08-07T10:31:50.099Z,29
2017-08-07T10:32:51.640Z,29
2017-08-07T10:33:53.110Z,29
2017-08-07T10:34:55.242Z,29.1
2017-08-07T10:35:57.048Z,29
2017-08-07T10:36:59.184Z,29
2017-08-07T10:38:01.316Z,29.1
2017-08-07T10:39:02.784Z,29.1
2017-08-07T10:40:04.586Z,29
2017-08-07T10:41:06.386Z,29.1
2017-08-07T10:42:08.518Z,29
2017-08-07T10:43:10.318Z,29.1
2017-08-07T10:44:12.455Z,29.1
2017-08-07T10:45:13.927Z,29
2017-08-07T10:46:16.059Z,29.1
2017-08-07T10:47:17.862Z,29.1
2017-08-07T10:48:19.658Z,29.1
2017-08-07T10:49:21.110Z,29.1
2017-08-07T10:50:23.240Z,29.1
2017-08-07T10:51:25.373Z,29.1
2017-08-07T10:52:27.150Z,29.1
2017-08-07T10:53:28.927Z,29.1
2017-08-07T10:54:30.044Z,29.1
2017-08-07T10:55:31.847Z,29.1
2017-08-07T10:56:33.324Z,29.1
2017-08-07T10:57:35.120Z,29.1
2017-08-07T10:58:37.250Z,29
2017-08-07T10:59:38.720Z,29.1
2017-08-07T11:00:40.192Z,29.1
2017-08-07T11:01:41.996Z,29.1
2017-08-07T11:02:43.772Z,29
2017-08-07T11:03:45.674Z,29.1
2017-08-07T11:04:47.473Z,29.1
2017-08-07T11:05:49.281Z,29.1
2017-08-07T11:06:51.074Z,29.1
2017-08-07T11:07:52.545Z,29.1
2017-08-07T11:08:53.656Z,29.1
2017-08-07T11:09:55.456Z,29.1
2017-08-07T11:10:57.588Z,29.1
2017-08-07T11:11:59.385Z,29.1
2017-08-07T11:13:00.828Z,29.1
2017-08-07T11:14:02.961Z,29.1
2017-08-07T11:15:04.737Z,29.2
2017-08-07T11:16:05.864Z,29
2017-08-07T11:17:07.299Z,29.1
2017-08-07T11:18:09.102Z,29.2
2017-08-07T11:19:11.234Z,29.1
2017-08-07T11:20:13.364Z,29.1
2017-08-07T11:21:14.833Z,29.1
2017-08-07T11:22:16.627Z,29.1
2017-08-07T11:23:18.073Z,29.2
2017-08-07T11:24:19.968Z,29.2
2017-08-07T11:25:21.782Z,29.2
2017-08-07T11:26:23.914Z,29.2
2017-08-07T11:27:26.049Z,29.1
2017-08-07T11:28:28.181Z,29.2
2017-08-07T11:29:30.311Z,29.1
2017-08-07T11:30:32.449Z,29.1
2017-08-07T11:31:34.228Z,29.2
2017-08-07T11:32:36.029Z,29.2
2017-08-07T11:33:38.166Z,29.1
2017-08-07T11:34:39.981Z,29.2
2017-08-07T11:35:42.114Z,29.2
2017-08-07T11:36:43.916Z,29.2
2017-08-07T11:37:45.038Z,29.2
2017-08-07T11:38:47.177Z,29.2
2017-08-07T11:39:49.074Z,29.2
2017-08-07T11:40:51.210Z,29.2
2017-08-07T11:41:52.695Z,29.3
2017-08-07T11:42:54.827Z,29.2
2017-08-07T11:43:56.626Z,29.2
2017-08-07T11:44:58.769Z,29.2
2017-08-07T11:46:00.899Z,29.2
2017-08-07T11:47:02.013Z,29.2
2017-08-07T11:48:03.455Z,29.2
2017-08-07T11:49:04.911Z,29.2
2017-08-07T11:50:06.712Z,29.1
2017-08-07T11:51:08.511Z,29.2
2017-08-07T11:52:09.621Z,29.2
2017-08-07T11:53:11.094Z,29.2
2017-08-07T11:54:12.564Z,29.2
2017-08-07T11:55:14.699Z,29.3
2017-08-07T11:56:16.836Z,29.2
2017-08-07T11:57:18.969Z,29.2
2017-08-07T11:58:20.767Z,29.3
2017-08-07T11:59:22.901Z,29.3
2017-08-07T12:00:24.799Z,29.2
2017-08-07T12:01:26.580Z,29.3
2017-08-07T12:02:28.378Z,29.3
2017-08-07T12:03:29.519Z,29.2
2017-08-07T12:04:31.653Z,29.3
2017-08-07T12:05:33.781Z,29.2
2017-08-07T12:06:35.915Z,29.3
2017-08-07T12:07:37.712Z,29.2
2017-08-07T12:08:39.845Z,29.3
2017-08-07T12:09:41.979Z,29.3
2017-08-07T12:10:44.206Z,29.2
2017-08-07T12:11:45.658Z,29.3
2017-08-07T12:12:47.459Z,29.3
2017-08-07T12:13:49.595Z,29.3
2017-08-07T12:14:51.371Z,29.3
2017-08-07T12:15:53.502Z,29.3
2017-08-07T12:16:55.303Z,29.3
2017-08-07T12:17:57.101Z,29.3
2017-08-07T12:18:59.233Z,29.3
2017-08-07T12:20:00.706Z,29.3
2017-08-07T12:21:02.510Z,29.3
2017-08-07T12:22:04.641Z,29.2
2017-08-07T12:23:05.759Z,29.3
2017-08-07T12:24:07.890Z,29.3
2017-08-07T12:25:10.024Z,29.3
2017-08-07T12:26:12.158Z,29.2
2017-08-07T12:27:13.959Z,29.3
2017-08-07T12:28:15.761Z,29.3
2017-08-07T12:29:17.561Z,29.3
2017-08-07T12:30:19.027Z,29.2
2017-08-07T12:31:21.149Z,29.3
2017-08-07T12:32:22.951Z,29.3
2017-08-07T12:33:24.749Z,29.3
2017-08-07T12:34:26.203Z,29.3
2017-08-07T12:35:27.984Z,29.3
2017-08-07T12:36:29.453Z,29.3
2017-08-07T12:37:31.593Z,29.3
2017-08-07T12:38:33.382Z,29.3
2017-08-07T12:39:35.512Z,29.3
2017-08-07T12:40:37.643Z,29.3
2017-08-07T12:41:39.444Z,29.3
2017-08-07T12:42:41.223Z,29.3
2017-08-07T12:43:43.020Z,29.3
2017-08-07T12:44:44.480Z,29.3
2017-08-07T12:45:46.615Z,29.3
2017-08-07T12:46:48.420Z,29.3
2017-08-07T12:47:49.866Z,29.3
2017-08-07T12:48:51.668Z,29.2
2017-08-07T12:49:53.468Z,29.2
2017-08-07T12:50:55.606Z,29.2
2017-08-07T12:51:56.719Z,29.3
2017-08-07T12:52:58.523Z,29.3
2017-08-07T12:54:00.654Z,29.3
2017-08-07T12:55:02.458Z,29.3
2017-08-07T12:56:04.254Z,29.3
2017-08-07T12:57:06.048Z,29.3
2017-08-07T12:58:07.176Z,29.3
2017-08-07T12:59:08.982Z,29.3
2017-08-07T13:00:10.428Z,29.3
2017-08-07T13:01:12.208Z,29.3
2017-08-07T13:02:14.007Z,29.2
2017-08-07T13:03:16.138Z,29.3
2017-08-07T13:04:17.610Z,29.3
2017-08-07T13:05:19.744Z,29.3
2017-08-07T13:06:21.876Z,29.3
2017-08-07T13:07:23.344Z,29.3
2017-08-07T13:08:24.459Z,29.3
2017-08-07T13:09:26.258Z,29.3
2017-08-07T13:10:28.393Z,29.3
2017-08-07T13:11:30.526Z,29.3
2017-08-07T13:12:32.658Z,29.3
2017-08-07T13:13:33.774Z,29.3
2017-08-07T13:14:35.221Z,29.3
2017-08-07T13:15:37.026Z,29.3
2017-08-07T13:16:38.805Z,29.3
2017-08-07T13:17:40.341Z,29.3
2017-08-07T13:18:41.459Z,29.3
2017-08-07T13:19:43.262Z,29.3
2017-08-07T13:20:45.420Z,29.4
2017-08-07T13:21:47.545Z,29.3
2017-08-07T13:22:49.318Z,29.3
2017-08-07T13:23:50.766Z,29.3
2017-08-07T13:24:52.213Z,29.3
2017-08-07T13:25:54.342Z,29.3
2017-08-07T13:26:56.144Z,29.3
2017-08-07T13:27:57.594Z,29.3
2017-08-07T13:28:59.393Z,29.3
2017-08-07T13:30:00.508Z,29.3
2017-08-07T13:31:02.639Z,29.3
2017-08-07T13:32:04.439Z,29.3
2017-08-07T13:33:06.241Z,29.3
2017-08-07T13:34:08.040Z,29.3
2017-08-07T13:35:09.485Z,29.3
2017-08-07T13:36:10.959Z,29.3
2017-08-07T13:37:12.740Z,29.2
2017-08-07T13:38:14.206Z,29.3
2017-08-07T13:39:16.339Z,29.3
2017-08-07T13:40:18.477Z,29.3
2017-08-07T13:41:19.948Z,29.3
2017-08-07T13:42:21.745Z,29.3
2017-08-07T13:43:23.883Z,29.3
2017-08-07T13:44:25.352Z,29.3
2017-08-07T13:45:27.152Z,29.3
2017-08-07T13:46:29.285Z,29.3
2017-08-07T13:47:31.454Z,29.3
2017-08-07T13:48:33.586Z,29.3
2017-08-07T13:49:35.386Z,29.3